createdAt,value
2024-02-13T00:01:48.899Z,7.09
2024-02-13T00:07:02.224Z,7.07
2024-02-13T00:12:08.341Z,7.08
2024-02-13T00:17:17.524Z,6.94
2024-02-13T00:22:34.374Z,6.95
2024-02-13T00:27:41.514Z,6.73
2024-02-13T00:32:49.236Z,6.94
2024-02-13T00:37:57.236Z,6.82
2024-02-13T00:43:02.759Z,6.77
2024-02-13T00:48:11.837Z,6.53
2024-02-13T00:53:20.333Z,6.67
2024-02-13T00:58:25.506Z,6.65
2024-02-13T01:03:30.966Z,6.80
2024-02-13T01:08:40.214Z,6.62
2024-02-13T01:13:45.331Z,6.63
2024-02-13T01:18:53.609Z,6.74
2024-02-13T01:24:04.081Z,6.62
2024-02-13T01:29:10.405Z,6.56
2024-02-13T01:34:15.896Z,6.36
2024-02-13T01:39:25.713Z,6.26
2024-02-13T01:44:31.107Z,6.25
2024-02-13T01:49:38.862Z,6.29
2024-02-13T01:54:48.057Z,6.03
2024-02-13T01:59:53.509Z,6.04
2024-02-13T02:05:00.672Z,6.06
2024-02-13T02:10:11.870Z,5.77
2024-02-13T02:15:18.122Z,5.71
2024-02-13T02:20:23.994Z,5.74
2024-02-13T02:25:35.434Z,5.97
2024-02-13T02:30:43.911Z,5.70
2024-02-13T02:35:57.320Z,5.52
2024-02-13T02:41:13.621Z,5.65
2024-02-13T02:46:23.653Z,5.59
2024-02-13T02:51:30.017Z,5.46
2024-02-13T02:56:38.966Z,5.66
2024-02-13T03:01:44.351Z,5.76
2024-02-13T03:06:49.586Z,5.72
2024-02-13T03:11:57.698Z,5.99
2024-02-13T03:17:03.376Z,5.89
2024-02-13T03:22:10.337Z,5.84
2024-02-13T03:27:18.712Z,5.88
2024-02-13T03:32:24.094Z,5.84
2024-02-13T03:37:29.357Z,5.94
2024-02-13T03:42:37.773Z,5.95
2024-02-13T03:47:43.393Z,5.88
2024-02-13T03:52:49.104Z,6.06
2024-02-13T03:57:59.153Z,5.98
2024-02-13T04:03:04.708Z,6.00
2024-02-13T04:08:10.920Z,5.97
2024-02-13T04:13:19.372Z,6.10
2024-02-13T04:18:25.154Z,6.05
2024-02-13T04:23:31.553Z,6.04
2024-02-13T04:28:41.222Z,6.12
2024-02-13T04:33:47.227Z,6.09
2024-02-13T04:38:52.879Z,6.01
2024-02-13T04:44:01.236Z,6.02
2024-02-13T04:49:07.104Z,6.09
2024-02-13T04:54:12.730Z,6.06
2024-02-13T04:59:22.910Z,6.01
2024-02-13T05:04:40.763Z,5.96
2024-02-13T05:09:46.664Z,5.87
2024-02-13T05:14:54.833Z,5.79
2024-02-13T05:20:01.504Z,5.72
2024-02-13T05:25:09.766Z,5.71
2024-02-13T05:30:19.830Z,5.89
2024-02-13T05:35:26.667Z,5.84
2024-02-13T05:40:32.215Z,5.71
2024-02-13T05:45:40.851Z,5.71
2024-02-13T05:50:46.390Z,5.88
2024-02-13T05:55:55.760Z,6.03
2024-02-13T06:01:08.963Z,5.89
2024-02-13T06:06:17.542Z,5.88
2024-02-13T06:11:33.219Z,5.78
2024-02-13T06:16:41.497Z,5.75
2024-02-13T06:21:46.988Z,5.77
2024-02-13T06:26:55.096Z,5.87
2024-02-13T06:32:08.273Z,5.78
2024-02-13T06:37:15.221Z,5.77
2024-02-13T06:42:20.640Z,5.91
2024-02-13T06:47:35.366Z,5.87
2024-02-13T06:52:42.931Z,5.87
2024-02-13T06:57:49.181Z,5.89
2024-02-13T07:03:11.262Z,5.89
2024-02-13T07:08:17.754Z,6.05
2024-02-13T07:13:50.734Z,5.95
2024-02-13T07:19:03.147Z,5.88
2024-02-13T07:24:10.598Z,5.89
2024-02-13T07:29:23.983Z,5.91
2024-02-13T07:34:38.570Z,5.93
2024-02-13T07:39:44.509Z,5.92
2024-02-13T07:44:52.631Z,5.82
2024-02-13T07:50:01.430Z,5.95
2024-02-13T07:55:07.519Z,6.00
2024-02-13T08:00:16.638Z,6.06
2024-02-13T08:05:24.843Z,6.03
2024-02-13T08:10:34.161Z,6.24
2024-02-13T08:16:14.862Z,6.16
2024-02-13T08:21:28.447Z,6.27
2024-02-13T08:26:33.967Z,6.49
2024-02-13T08:31:47.240Z,6.64
2024-02-13T08:37:01.148Z,6.84
2024-02-13T08:42:09.316Z,7.02
2024-02-13T08:47:16.557Z,6.96
2024-02-13T08:52:26.964Z,7.10
2024-02-13T08:57:34.872Z,7.08
2024-02-13T09:02:51.342Z,7.15
2024-02-13T09:08:11.355Z,7.08
2024-02-13T09:13:18.713Z,7.52
2024-02-13T09:18:27.887Z,7.50
2024-02-13T09:23:36.948Z,7.97
2024-02-13T09:28:55.180Z,8.06
2024-02-13T09:34:09.812Z,7.73
2024-02-13T09:39:18.852Z,8.75
2024-02-13T09:44:24.911Z,9.72
2024-02-13T09:49:38.108Z,8.63
2024-02-13T09:54:52.170Z,9.32
2024-02-13T10:00:02.819Z,8.45
2024-02-13T10:05:12.180Z,7.96
2024-02-13T10:10:20.812Z,8.92
2024-02-13T10:15:43.902Z,8.04
2024-02-13T10:20:50.424Z,9.41
2024-02-13T10:25:58.324Z,9.03
2024-02-13T10:31:03.563Z,8.29
2024-02-13T10:36:10.023Z,8.64
2024-02-13T10:41:24.965Z,8.26
2024-02-13T10:46:43.676Z,8.44
2024-02-13T10:52:03.418Z,10.79
2024-02-13T11:03:06.666Z,9.29
2024-02-13T11:08:20.962Z,9.82
2024-02-13T11:13:33.567Z,11.43
2024-02-13T11:18:47.729Z,10.76
2024-02-13T11:24:02.660Z,11.48
2024-02-13T11:29:25.240Z,10.86
2024-02-13T11:34:46.254Z,11.13
2024-02-13T11:45:27.906Z,11.22
2024-02-13T11:50:37.523Z,9.86
2024-02-13T11:55:44.463Z,10.30
2024-02-13T12:01:06.188Z,10.40
2024-02-13T12:06:11.572Z,10.71
2024-02-13T12:11:19.489Z,11.15
2024-02-13T12:16:29.797Z,10.56
2024-02-13T12:21:34.877Z,10.79
2024-02-13T12:26:41.026Z,10.41
2024-02-13T12:32:02.489Z,10.76
2024-02-13T12:37:13.012Z,11.10
2024-02-13T12:42:19.045Z,11.46
2024-02-13T12:47:27.117Z,12.12
2024-02-13T12:52:33.245Z,12.14
2024-02-13T12:57:38.273Z,11.97
2024-02-13T13:02:46.122Z,12.95
2024-02-13T13:07:52.710Z,12.13
2024-02-13T13:12:58.993Z,11.57
2024-02-13T13:18:12.787Z,10.54
2024-02-13T13:23:22.695Z,11.55
2024-02-13T13:28:30.301Z,12.14
2024-02-13T13:33:40.741Z,11.94
2024-02-13T13:38:47.536Z,12.03
2024-02-13T13:43:52.651Z,12.48
2024-02-13T13:49:09.400Z,11.96
2024-02-13T13:54:16.691Z,11.42
2024-02-13T13:59:23.549Z,11.77
2024-02-13T14:04:32.943Z,10.68
2024-02-13T14:09:38.533Z,10.29
2024-02-13T14:14:43.899Z,10.90
2024-02-13T14:19:56.455Z,10.89
2024-02-13T14:25:04.988Z,10.48
2024-02-13T14:30:12.072Z,10.64
2024-02-13T14:35:39.873Z,10.93
2024-02-13T14:40:50.540Z,10.56
2024-02-13T14:46:00.146Z,10.42
2024-02-13T14:51:08.438Z,10.02
2024-02-13T14:56:14.781Z,9.99
2024-02-13T15:01:20.124Z,9.91
2024-02-13T15:06:33.052Z,10.18
2024-02-13T15:11:39.761Z,10.16
2024-02-13T15:16:49.846Z,9.80
2024-02-13T15:21:57.650Z,9.53
2024-02-13T15:27:07.319Z,9.46
2024-02-13T15:32:15.663Z,9.24
2024-02-13T15:37:50.588Z,9.39
2024-02-13T15:43:13.744Z,9.71
2024-02-13T15:48:21.129Z,9.21
2024-02-13T15:53:32.312Z,9.06
2024-02-13T15:58:38.518Z,9.77
2024-02-13T16:03:44.664Z,9.70
2024-02-13T16:08:54.839Z,9.62
2024-02-13T16:14:10.138Z,9.64
2024-02-13T16:19:16.049Z,9.30
2024-02-13T16:24:23.970Z,9.13
2024-02-13T16:29:29.107Z,9.35
2024-02-13T16:34:38.814Z,9.23
2024-02-13T16:39:49.118Z,9.10
2024-02-13T16:44:56.663Z,9.00
2024-02-13T16:50:03.244Z,8.55
2024-02-13T16:55:12.184Z,8.59
2024-02-13T17:00:20.745Z,8.85
2024-02-13T17:05:26.479Z,8.29
2024-02-13T17:10:34.938Z,8.26
2024-02-13T17:15:40.233Z,8.44
2024-02-13T17:20:45.973Z,8.06
2024-02-13T17:25:57.307Z,7.66
2024-02-13T17:31:02.470Z,8.17
2024-02-13T17:36:13.222Z,8.12
2024-02-13T17:41:28.852Z,8.02
2024-02-13T17:46:34.028Z,7.80
2024-02-13T17:51:42.015Z,7.86
2024-02-13T17:56:54.025Z,7.52
2024-02-13T18:01:59.960Z,7.63
2024-02-13T18:07:05.596Z,7.42
2024-02-13T18:12:13.606Z,7.42
2024-02-13T18:17:21.993Z,7.58
2024-02-13T18:22:27.240Z,7.00
2024-02-13T18:27:34.858Z,6.82
2024-02-13T18:32:42.758Z,7.29
2024-02-13T18:37:48.124Z,7.34
2024-02-13T18:42:56.614Z,7.62
2024-02-13T18:48:02.732Z,7.53
2024-02-13T18:53:12.822Z,6.89
2024-02-13T18:58:21.638Z,7.17
2024-02-13T19:03:32.071Z,6.81
2024-02-13T19:08:48.966Z,6.90
2024-02-13T19:14:00.648Z,6.72
2024-02-13T19:19:09.125Z,6.81
2024-02-13T19:24:29.169Z,6.71
2024-02-13T19:29:40.521Z,5.88
2024-02-13T19:34:46.272Z,6.59
2024-02-13T19:39:54.052Z,6.29
2024-02-13T19:45:07.952Z,6.20
2024-02-13T19:55:38.722Z,5.88
2024-02-13T20:00:47.147Z,6.16
2024-02-13T20:05:54.449Z,5.74
2024-02-13T20:11:03.313Z,5.64
2024-02-13T20:16:12.718Z,5.52
2024-02-13T20:21:22.687Z,5.46
2024-02-13T20:26:28.313Z,5.69
2024-02-13T20:31:36.866Z,5.72
2024-02-13T20:36:42.558Z,5.65
2024-02-13T20:41:48.995Z,5.40
2024-02-13T20:46:58.031Z,5.65
2024-02-13T20:52:03.236Z,5.84
2024-02-13T20:57:10.306Z,5.69
2024-02-13T21:02:18.711Z,5.65
2024-02-13T21:07:26.444Z,5.67
2024-02-13T21:12:32.338Z,5.56
2024-02-13T21:17:46.991Z,5.69
2024-02-13T21:23:11.160Z,5.49
2024-02-13T21:28:16.340Z,5.12
2024-02-13T21:33:27.656Z,5.11
2024-02-13T21:38:36.095Z,5.32
2024-02-13T21:43:41.394Z,5.23
2024-02-13T21:48:50.893Z,5.32
2024-02-13T21:53:56.307Z,5.13
2024-02-13T21:59:06.163Z,5.14
2024-02-13T22:04:16.318Z,5.13
2024-02-13T22:09:23.831Z,5.27
2024-02-13T22:14:29.479Z,4.33
2024-02-13T22:19:37.548Z,3.85
2024-02-13T22:24:42.639Z,3.57
2024-02-13T22:29:50.147Z,3.46
2024-02-13T22:34:59.014Z,3.34
2024-02-13T22:40:04.563Z,3.15
2024-02-13T22:45:12.072Z,3.28
2024-02-13T22:50:21.883Z,3.29
2024-02-13T22:55:27.047Z,3.19
2024-02-13T23:00:50.742Z,3.01
2024-02-13T23:06:00.703Z,2.96
2024-02-13T23:11:08.821Z,2.92
2024-02-13T23:16:14.580Z,3.01
2024-02-13T23:21:22.997Z,2.75
2024-02-13T23:26:28.158Z,2.67
2024-02-13T23:31:34.227Z,2.64
2024-02-13T23:36:41.840Z,2.70
2024-02-13T23:41:47.325Z,2.50
2024-02-13T23:46:57.150Z,2.50
2024-02-13T23:52:04.845Z,2.35
2024-02-13T23:57:10.947Z,2.40
